createdAt,value
2017-03-11T00:00:37.320Z,1021.23
2017-03-11T00:01:47.253Z,1021.21
2017-03-11T00:02:57.054Z,1021.26
2017-03-11T00:04:07.309Z,1021.22
2017-03-11T00:05:17.674Z,1021.2
2017-03-11T00:06:28.702Z,1021.2
2017-03-11T00:07:39.523Z,1021.22
2017-03-11T00:08:49.388Z,1021.24
2017-03-11T00:09:59.326Z,1021.26
2017-03-11T00:11:09.995Z,1021.26
2017-03-11T00:12:21.072Z,1021.22
2017-03-11T00:13:32.840Z,1021.2
2017-03-11T00:14:43.671Z,1021.2
2017-03-11T00:15:55.020Z,1021.2
2017-03-11T00:17:06.428Z,1021.22
2017-03-11T00:18:17.433Z,1021.2
2017-03-11T00:19:28.527Z,1021.24
2017-03-11T00:20:40.381Z,1021.23
2017-03-11T00:21:50.682Z,1021.24
2017-03-11T00:23:02.109Z,1021.24
2017-03-11T00:24:13.441Z,1021.23
2017-03-11T00:25:23.231Z,1021.23
2017-03-11T00:26:35.189Z,1021.22
2017-03-11T00:27:45.921Z,1021.25
2017-03-11T00:28:55.693Z,1021.22
2017-03-11T00:30:06.111Z,1021.23
2017-03-11T00:31:15.856Z,1021.2
2017-03-11T00:32:26.704Z,1021.23
2017-03-11T00:33:38.119Z,1021.2
2017-03-11T00:34:49.408Z,1021.21
2017-03-11T00:35:59.992Z,1021.17
2017-03-11T00:37:11.616Z,1021.2
2017-03-11T00:38:23.061Z,1021.18
2017-03-11T00:39:33.505Z,1021.12
2017-03-11T00:40:45.542Z,1021.14
2017-03-11T00:41:56.773Z,1021.12
2017-03-11T00:43:07.371Z,1021.13
2017-03-11T00:44:19.201Z,1021.14
2017-03-11T00:45:30.045Z,1021.16
2017-03-11T00:46:40.609Z,1021.16
2017-03-11T00:47:51.830Z,1021.14
2017-03-11T00:49:03.049Z,1021.17
2017-03-11T00:50:13.822Z,1021.16
2017-03-11T00:51:25.187Z,1021.18
2017-03-11T00:52:36.049Z,1021.15
2017-03-11T00:53:45.862Z,1021.13
2017-03-11T00:54:55.965Z,1021.21
2017-03-11T00:56:06.775Z,1021.19
2017-03-11T00:57:17.813Z,1021.18
2017-03-11T00:58:29.393Z,1021.17
2017-03-11T00:59:39.901Z,1021.15
2017-03-11T01:00:51.177Z,1021.12
2017-03-11T01:02:01.103Z,1021.1
2017-03-11T01:03:11.341Z,1021.15
2017-03-11T01:04:22.042Z,1021.09
2017-03-11T01:05:31.971Z,1021.07
2017-03-11T01:06:41.736Z,1021.04
2017-03-11T01:07:51.537Z,1021.03
2017-03-11T01:09:02.172Z,1021.01
2017-03-11T01:10:11.746Z,1021.02
2017-03-11T01:11:22.220Z,1020.96
2017-03-11T01:12:32.879Z,1020.93
2017-03-11T01:13:43.799Z,1020.97
2017-03-11T01:14:54.770Z,1020.97
2017-03-11T01:16:06.030Z,1020.99
2017-03-11T01:17:16.534Z,1020.99
2017-03-11T01:18:27.844Z,1020.94
2017-03-11T01:19:37.947Z,1020.95
2017-03-11T01:20:48.345Z,1020.98
2017-03-11T01:21:58.629Z,1020.98
2017-03-11T01:23:09.160Z,1020.96
2017-03-11T01:24:20.551Z,1020.93
2017-03-11T01:25:32.574Z,1020.95
2017-03-11T01:26:42.936Z,1020.94
2017-03-11T01:27:54.564Z,1020.93
2017-03-11T01:29:05.688Z,1020.9
2017-03-11T01:30:16.482Z,1020.89
2017-03-11T01:31:28.455Z,1020.9
2017-03-11T01:32:39.346Z,1020.93
2017-03-11T01:33:50.151Z,1020.89
2017-03-11T01:35:01.187Z,1020.92
2017-03-11T01:36:13.042Z,1020.91
2017-03-11T01:37:23.819Z,1020.92
2017-03-11T01:38:35.574Z,1020.93
2017-03-11T01:39:46.480Z,1020.91
2017-03-11T01:40:57.502Z,1020.93
2017-03-11T01:42:07.370Z,1020.92
2017-03-11T01:43:19.893Z,1020.93
2017-03-11T01:44:30.666Z,1020.94
2017-03-11T01:45:42.307Z,1020.95
2017-03-11T01:46:53.561Z,1020.92
2017-03-11T01:48:04.137Z,1020.95
2017-03-11T01:49:16.447Z,1020.93
2017-03-11T01:50:27.234Z,1020.92
2017-03-11T01:51:38.154Z,1020.9
2017-03-11T01:52:48.321Z,1020.88
2017-03-11T01:53:57.351Z,1020.9
2017-03-11T01:55:06.676Z,1020.86
2017-03-11T01:56:15.698Z,1020.88
2017-03-11T01:57:24.707Z,1020.81
2017-03-11T01:58:33.727Z,1020.83
2017-03-11T01:59:42.741Z,1020.77
2017-03-11T02:00:52.057Z,1020.76
2017-03-11T02:02:01.080Z,1020.75
2017-03-11T02:03:10.121Z,1020.77
2017-03-11T02:04:19.151Z,1020.74
2017-03-11T02:05:28.172Z,1020.75
2017-03-11T02:06:37.457Z,1020.73
2017-03-11T02:07:46.517Z,1020.73
2017-03-11T02:08:55.541Z,1020.71
2017-03-11T02:10:05.073Z,1020.66
2017-03-11T02:11:14.100Z,1020.68
2017-03-11T02:12:23.384Z,1020.64
2017-03-11T02:13:32.415Z,1020.64
2017-03-11T02:14:41.436Z,1020.67
2017-03-11T02:15:50.978Z,1020.62
2017-03-11T02:17:00.008Z,1020.65
2017-03-11T02:18:09.293Z,1020.62
2017-03-11T02:19:18.423Z,1020.65
2017-03-11T02:20:27.669Z,1020.59
2017-03-11T02:21:36.686Z,1020.61
2017-03-11T02:22:46.135Z,1020.59
2017-03-11T02:23:55.412Z,1020.58
2017-03-11T02:25:04.421Z,1020.57
2017-03-11T02:26:13.435Z,1020.6
2017-03-11T02:27:22.451Z,1020.61
2017-03-11T02:28:31.470Z,1020.6
2017-03-11T02:29:41.187Z,1020.6
2017-03-11T02:30:50.329Z,1020.62
2017-03-11T02:31:59.370Z,1020.64
2017-03-11T02:33:08.402Z,1020.64
2017-03-11T02:34:17.527Z,1020.65
2017-03-11T02:35:26.796Z,1020.66
2017-03-11T02:36:35.837Z,1020.68
2017-03-11T02:37:44.852Z,1020.67
2017-03-11T02:38:53.884Z,1020.68
2017-03-11T02:40:02.911Z,1020.65
2017-03-11T02:41:12.186Z,1020.66
2017-03-11T02:42:21.216Z,1020.68
2017-03-11T02:43:30.816Z,1020.65
2017-03-11T02:44:41.720Z,1020.68
2017-03-11T02:45:52.182Z,1020.64
2017-03-11T02:47:04.281Z,1020.64
2017-03-11T02:48:15.468Z,1020.61
2017-03-11T02:49:25.773Z,1020.64
2017-03-11T02:50:36.995Z,1020.61
2017-03-11T02:51:48.380Z,1020.62
2017-03-11T02:52:58.780Z,1020.57
2017-03-11T02:54:09.989Z,1020.63
2017-03-11T02:55:19.747Z,1020.57
2017-03-11T02:56:30.321Z,1020.56
2017-03-11T02:57:39.353Z,1020.56
2017-03-11T02:58:48.743Z,1020.52
2017-03-11T02:59:57.782Z,1020.51
2017-03-11T03:01:07.007Z,1020.52
2017-03-11T03:02:16.453Z,1020.5
2017-03-11T03:03:25.717Z,1020.52
2017-03-11T03:04:36.731Z,1020.5
2017-03-11T03:05:47.023Z,1020.55
2017-03-11T03:06:59.030Z,1020.53
2017-03-11T03:08:09.963Z,1020.53
2017-03-11T03:09:20.645Z,1020.53
2017-03-11T03:10:32.520Z,1020.56
2017-03-11T03:11:43.862Z,1020.55
2017-03-11T03:12:54.063Z,1020.57
2017-03-11T03:14:05.549Z,1020.59
2017-03-11T03:15:17.242Z,1020.56
2017-03-11T03:16:27.812Z,1020.53
2017-03-11T03:17:39.257Z,1020.55
2017-03-11T03:18:50.526Z,1020.5
2017-03-11T03:20:01.107Z,1020.52
2017-03-11T03:21:13.281Z,1020.53
2017-03-11T03:22:24.361Z,1020.52
2017-03-11T03:23:35.218Z,1020.51
2017-03-11T03:24:46.466Z,1020.44
2017-03-11T03:25:57.727Z,1020.5
2017-03-11T03:27:08.341Z,1020.49
2017-03-11T03:28:19.262Z,1020.54
2017-03-11T03:29:30.070Z,1020.5
2017-03-11T03:30:40.803Z,1020.5
2017-03-11T03:31:50.212Z,1020.57
2017-03-11T03:33:00.417Z,1020.49
2017-03-11T03:34:10.846Z,1020.47
2017-03-11T03:35:22.108Z,1020.43
2017-03-11T03:36:33.445Z,1020.41
2017-03-11T03:37:44.098Z,1020.42
2017-03-11T03:38:55.557Z,1020.36
2017-03-11T03:40:07.183Z,1020.34
2017-03-11T03:41:17.563Z,1020.35
2017-03-11T03:42:29.412Z,1020.35
2017-03-11T03:43:40.618Z,1020.36
2017-03-11T03:44:51.270Z,1020.37
2017-03-11T03:46:03.183Z,1020.35
2017-03-11T03:47:14.064Z,1020.36
2017-03-11T03:48:24.813Z,1020.36
2017-03-11T03:49:36.461Z,1020.35
2017-03-11T03:50:47.686Z,1020.3
2017-03-11T03:51:58.977Z,1020.34
2017-03-11T03:53:10.296Z,1020.33
2017-03-11T03:54:21.275Z,1020.31
2017-03-11T03:55:31.983Z,1020.32
2017-03-11T03:56:43.668Z,1020.31
2017-03-11T03:57:55.296Z,1020.35
2017-03-11T03:59:05.540Z,1020.32
2017-03-11T04:00:17.355Z,1020.33
2017-03-11T04:01:28.266Z,1020.33
2017-03-11T04:02:39.120Z,1020.3
2017-03-11T04:03:51.083Z,1020.29
2017-03-11T04:05:01.871Z,1020.31
2017-03-11T04:06:12.769Z,1020.31
2017-03-11T04:07:24.443Z,1020.32
2017-03-11T04:08:35.578Z,1020.39
2017-03-11T04:09:46.437Z,1020.42
2017-03-11T04:10:58.003Z,1020.43
2017-03-11T04:12:08.982Z,1020.42
2017-03-11T04:13:19.616Z,1020.43
2017-03-11T04:14:31.651Z,1020.45
2017-03-11T04:15:42.714Z,1020.43
2017-03-11T04:16:53.403Z,1020.44
2017-03-11T04:18:05.185Z,1020.4
2017-03-11T04:19:16.312Z,1020.36
2017-03-11T04:20:26.990Z,1020.38
2017-03-11T04:21:38.817Z,1020.36
2017-03-11T04:22:49.582Z,1020.35
2017-03-11T04:24:00.334Z,1020.36
2017-03-11T04:25:12.253Z,1020.31
2017-03-11T04:26:23.184Z,1020.32
2017-03-11T04:27:34.094Z,1020.31
2017-03-11T04:28:45.757Z,1020.31
2017-03-11T04:29:56.906Z,1020.32
2017-03-11T04:31:07.368Z,1020.38
2017-03-11T04:32:19.256Z,1020.34
2017-03-11T04:33:30.454Z,1020.35
2017-03-11T04:34:40.854Z,1020.33
2017-03-11T04:35:52.943Z,1020.31
2017-03-11T04:37:03.877Z,1020.35
2017-03-11T04:38:13.928Z,1020.35
2017-03-11T04:39:26.711Z,1020.34
2017-03-11T04:40:37.273Z,1020.34
2017-03-11T04:41:48.116Z,1020.32
2017-03-11T04:42:57.386Z,1020.28
2017-03-11T04:44:06.746Z,1020.28
2017-03-11T04:45:16.704Z,1020.27
2017-03-11T04:46:26.140Z,1020.24
2017-03-11T04:47:36.400Z,1020.24
2017-03-11T04:48:45.954Z,1020.24
2017-03-11T04:49:56.607Z,1020.3
2017-03-11T04:51:07.221Z,1020.26
2017-03-11T04:52:17.674Z,1020.25
2017-03-11T04:53:29.059Z,1020.27
2017-03-11T04:54:40.543Z,1020.27
2017-03-11T04:55:51.377Z,1020.29
2017-03-11T04:57:00.788Z,1020.27
2017-03-11T04:58:09.800Z,1020.3
2017-03-11T04:59:18.833Z,1020.3
2017-03-11T05:00:27.953Z,1020.33
2017-03-11T05:01:37.022Z,1020.34
2017-03-11T05:02:46.381Z,1020.36
2017-03-11T05:03:55.514Z,1020.38
2017-03-11T05:05:04.624Z,1020.38
2017-03-11T05:06:13.664Z,1020.39
2017-03-11T05:07:22.783Z,1020.4
2017-03-11T05:08:32.043Z,1020.37
2017-03-11T05:09:41.156Z,1020.39
2017-03-11T05:10:50.176Z,1020.35
2017-03-11T05:11:59.203Z,1020.32
2017-03-11T05:13:08.328Z,1020.32
2017-03-11T05:14:17.600Z,1020.32
2017-03-11T05:15:26.630Z,1020.36
2017-03-11T05:16:35.782Z,1020.38
2017-03-11T05:17:44.824Z,1020.38
2017-03-11T05:18:54.353Z,1020.41
2017-03-11T05:20:03.642Z,1020.42
2017-03-11T05:21:13.089Z,1020.39
2017-03-11T05:22:22.112Z,1020.43
2017-03-11T05:23:31.140Z,1020.43
2017-03-11T05:24:40.176Z,1020.44
2017-03-11T05:25:49.449Z,1020.47
2017-03-11T05:26:58.910Z,1020.48
2017-03-11T05:28:07.938Z,1020.47
2017-03-11T05:29:16.965Z,1020.43
2017-03-11T05:30:26.012Z,1020.49
2017-03-11T05:31:35.694Z,1020.5
2017-03-11T05:32:44.728Z,1020.52
2017-03-11T05:33:54.288Z,1020.59
2017-03-11T05:35:03.308Z,1020.6
2017-03-11T05:36:12.741Z,1020.58
2017-03-11T05:37:22.050Z,1020.64
2017-03-11T05:38:31.073Z,1020.58
2017-03-11T05:39:40.109Z,1020.6
2017-03-11T05:40:49.214Z,1020.54
2017-03-11T05:41:58.251Z,1020.51
2017-03-11T05:43:07.631Z,1020.51
2017-03-11T05:44:16.660Z,1020.56
2017-03-11T05:45:25.685Z,1020.48
2017-03-11T05:46:34.729Z,1020.54
2017-03-11T05:47:43.743Z,1020.54
2017-03-11T05:48:53.108Z,1020.5
2017-03-11T05:50:02.215Z,1020.53
2017-03-11T05:51:11.236Z,1020.62
2017-03-11T05:52:20.256Z,1020.64
2017-03-11T05:53:29.289Z,1020.68
2017-03-11T05:54:38.606Z,1020.66
2017-03-11T05:55:47.642Z,1020.65
2017-03-11T05:56:56.674Z,1020.59
2017-03-11T05:58:05.710Z,1020.61
2017-03-11T05:59:14.752Z,1020.57
2017-03-11T06:00:24.029Z,1020.59
2017-03-11T06:01:33.094Z,1020.64
2017-03-11T06:02:42.112Z,1020.73
2017-03-11T06:03:51.125Z,1020.67
2017-03-11T06:05:00.144Z,1020.61
2017-03-11T06:06:09.848Z,1020.68
2017-03-11T06:07:18.894Z,1020.65
2017-03-11T06:08:27.920Z,1020.72
2017-03-11T06:09:37.033Z,1020.66
2017-03-11T06:10:46.065Z,1020.64
2017-03-11T06:11:55.342Z,1020.64
2017-03-11T06:13:04.366Z,1020.57
2017-03-11T06:14:13.400Z,1020.62
2017-03-11T06:15:22.423Z,1020.57
2017-03-11T06:16:31.449Z,1020.59
2017-03-11T06:17:40.816Z,1020.6
2017-03-11T06:18:49.841Z,1020.57
2017-03-11T06:19:58.881Z,1020.54
2017-03-11T06:21:07.910Z,1020.56
2017-03-11T06:22:16.940Z,1020.59
2017-03-11T06:23:26.364Z,1020.58
2017-03-11T06:24:35.499Z,1020.58
2017-03-11T06:25:44.536Z,1020.56
2017-03-11T06:26:53.583Z,1020.57
2017-03-11T06:28:02.620Z,1020.6
2017-03-11T06:29:11.892Z,1020.58
2017-03-11T06:30:20.915Z,1020.64
2017-03-11T06:31:29.933Z,1020.63
2017-03-11T06:32:38.967Z,1020.69
2017-03-11T06:33:48.084Z,1020.65
2017-03-11T06:34:57.441Z,1020.71
2017-03-11T06:36:06.485Z,1020.66
2017-03-11T06:37:15.902Z,1020.73
2017-03-11T06:38:24.923Z,1020.74
2017-03-11T06:39:34.055Z,1020.72
2017-03-11T06:40:43.515Z,1020.71
2017-03-11T06:41:52.538Z,1020.69
2017-03-11T06:43:01.579Z,1020.7
2017-03-11T06:44:10.609Z,1020.69
2017-03-11T06:45:19.642Z,1020.71
2017-03-11T06:46:28.916Z,1020.7
2017-03-11T06:47:37.929Z,1020.77
2017-03-11T06:48:47.231Z,1020.8
2017-03-11T06:49:56.652Z,1020.77
2017-03-11T06:51:05.749Z,1020.78
2017-03-11T06:52:15.460Z,1020.79
2017-03-11T06:53:25.002Z,1020.78
2017-03-11T06:54:34.037Z,1020.79
2017-03-11T06:55:43.181Z,1020.83
2017-03-11T06:56:52.212Z,1020.82
2017-03-11T06:58:01.732Z,1020.79
2017-03-11T06:59:10.866Z,1020.79
2017-03-11T07:00:20.004Z,1020.79
2017-03-11T07:01:29.069Z,1020.8
2017-03-11T07:02:38.324Z,1020.82
2017-03-11T07:03:47.898Z,1020.82
2017-03-11T07:04:57.020Z,1020.79
2017-03-11T07:06:06.108Z,1020.85
2017-03-11T07:07:15.154Z,1020.84
2017-03-11T07:08:24.184Z,1020.83
2017-03-11T07:09:33.616Z,1020.86
2017-03-11T07:10:42.958Z,1020.83
2017-03-11T07:11:52.473Z,1020.84
2017-03-11T07:13:01.645Z,1020.89
2017-03-11T07:14:10.683Z,1020.86
2017-03-11T07:15:20.025Z,1020.87
2017-03-11T07:16:29.054Z,1020.9
2017-03-11T07:17:38.397Z,1020.85
2017-03-11T07:18:48.330Z,1020.87
2017-03-11T07:19:57.345Z,1020.85
2017-03-11T07:21:06.770Z,1020.9
2017-03-11T07:22:15.852Z,1020.87
2017-03-11T07:23:24.969Z,1020.89
2017-03-11T07:24:34.103Z,1020.89
2017-03-11T07:25:44.172Z,1020.82
2017-03-11T07:26:53.452Z,1020.87
2017-03-11T07:28:02.459Z,1020.87
2017-03-11T07:29:11.713Z,1020.87
2017-03-11T07:30:20.802Z,1020.86
2017-03-11T07:31:29.839Z,1020.85
2017-03-11T07:32:39.220Z,1020.87
2017-03-11T07:33:48.603Z,1020.81
2017-03-11T07:34:57.817Z,1020.8
2017-03-11T07:36:07.054Z,1020.79
2017-03-11T07:37:18.628Z,1020.76
2017-03-11T07:38:28.082Z,1020.8
2017-03-11T07:39:37.110Z,1020.79
2017-03-11T07:40:46.138Z,1020.8
2017-03-11T07:41:55.172Z,1020.8
2017-03-11T07:43:04.191Z,1020.78
2017-03-11T07:44:13.802Z,1020.75
2017-03-11T07:45:22.876Z,1020.77
2017-03-11T07:46:31.902Z,1020.73
2017-03-11T07:47:41.031Z,1020.72
2017-03-11T07:48:50.145Z,1020.73
2017-03-11T07:49:59.885Z,1020.76
2017-03-11T07:51:08.906Z,1020.74
2017-03-11T07:52:18.026Z,1020.81
2017-03-11T07:53:27.057Z,1020.77
2017-03-11T07:54:36.206Z,1020.74
2017-03-11T07:55:45.535Z,1020.75
2017-03-11T07:56:54.558Z,1020.74
2017-03-11T07:58:03.603Z,1020.73
2017-03-11T07:59:12.612Z,1020.71
2017-03-11T08:00:21.644Z,1020.8
2017-03-11T08:01:31.371Z,1020.79
2017-03-11T08:02:40.397Z,1020.86
2017-03-11T08:03:49.424Z,1020.81
2017-03-11T08:04:58.873Z,1020.86
2017-03-11T08:06:08.117Z,1020.92
2017-03-11T08:07:17.585Z,1020.83
2017-03-11T08:08:26.731Z,1020.83
2017-03-11T08:09:35.885Z,1020.8
2017-03-11T08:10:44.932Z,1020.78
2017-03-11T08:11:54.393Z,1020.81
2017-03-11T08:13:03.758Z,1020.82
2017-03-11T08:14:12.982Z,1020.8
2017-03-11T08:15:22.008Z,1020.77
2017-03-11T08:16:31.130Z,1020.79
2017-03-11T08:17:40.161Z,1020.78
2017-03-11T08:18:49.526Z,1020.79
2017-03-11T08:19:59.143Z,1020.78
2017-03-11T08:21:08.200Z,1020.78
2017-03-11T08:22:17.336Z,1020.83
2017-03-11T08:23:26.435Z,1020.85
2017-03-11T08:24:35.815Z,1020.84
2017-03-11T08:25:44.802Z,1020.85
2017-03-11T08:26:53.879Z,1020.85
2017-03-11T08:28:03.291Z,1020.83
2017-03-11T08:29:12.856Z,1020.86
2017-03-11T08:30:22.305Z,1020.84
2017-03-11T08:31:31.345Z,1020.88
2017-03-11T08:32:40.397Z,1020.87
2017-03-11T08:33:49.406Z,1020.88
2017-03-11T08:34:58.437Z,1020.87
2017-03-11T08:36:07.694Z,1020.88
2017-03-11T08:37:16.691Z,1020.92
2017-03-11T08:38:25.799Z,1020.9
2017-03-11T08:39:34.960Z,1020.93
2017-03-11T08:40:44.073Z,1020.91
2017-03-11T08:41:53.307Z,1020.92
2017-03-11T08:43:02.551Z,1020.91
2017-03-11T08:44:11.714Z,1020.91
2017-03-11T08:45:22.814Z,1020.98
2017-03-11T08:46:35.803Z,1021.01
2017-03-11T08:47:45.092Z,1021.03
2017-03-11T08:48:54.480Z,1021.03
2017-03-11T08:50:03.472Z,1021.01
2017-03-11T08:51:12.470Z,1021.04
2017-03-11T08:52:21.469Z,1021.02
2017-03-11T08:53:30.894Z,1021.04
2017-03-11T08:54:39.972Z,1021.03
2017-03-11T08:55:49.068Z,1020.98
2017-03-11T08:56:58.059Z,1021.03
2017-03-11T08:58:07.035Z,1021
2017-03-11T08:59:16.716Z,1021.01
2017-03-11T09:00:25.782Z,1021.06
2017-03-11T09:01:34.979Z,1021.12
2017-03-11T09:02:43.978Z,1021.12
2017-03-11T09:03:52.969Z,1021.09
2017-03-11T09:05:02.199Z,1021.11
2017-03-11T09:06:11.190Z,1021.08
2017-03-11T09:07:20.335Z,1021.1
2017-03-11T09:08:29.330Z,1021.09
2017-03-11T09:09:38.411Z,1021.11
2017-03-11T09:10:47.747Z,1021.11
2017-03-11T09:11:57.214Z,1021.08
2017-03-11T09:13:06.350Z,1021.07
2017-03-11T09:14:15.334Z,1021.07
2017-03-11T09:15:24.479Z,1021.08
2017-03-11T09:16:33.799Z,1021.05
2017-03-11T09:17:42.789Z,1021.08
2017-03-11T09:18:52.429Z,1021.1
2017-03-11T09:20:01.613Z,1021.11
2017-03-11T09:21:10.693Z,1021.08
2017-03-11T09:22:19.929Z,1021.11
2017-03-11T09:23:28.924Z,1021.11
2017-03-11T09:24:37.928Z,1021.12
2017-03-11T09:25:47.797Z,1021.12
2017-03-11T09:26:56.906Z,1021.12
2017-03-11T09:28:06.551Z,1021.07
2017-03-11T09:29:15.547Z,1021.06
2017-03-11T09:30:24.541Z,1021.05
2017-03-11T09:31:33.539Z,1021.05
2017-03-11T09:32:42.562Z,1021.03
2017-03-11T09:33:51.872Z,1021.04
2017-03-11T09:35:00.874Z,1021.01
2017-03-11T09:36:10.002Z,1021
2017-03-11T09:37:19.081Z,1021
2017-03-11T09:38:28.645Z,1021.02
2017-03-11T09:39:38.087Z,1021.01
2017-03-11T09:40:47.105Z,1021.03
2017-03-11T09:41:56.532Z,1020.99
2017-03-11T09:43:05.519Z,1021
2017-03-11T09:44:14.858Z,1020.94
2017-03-11T09:45:24.718Z,1020.91
2017-03-11T09:46:33.716Z,1020.94
2017-03-11T09:47:42.707Z,1020.98
2017-03-11T09:48:52.110Z,1020.94
2017-03-11T09:50:01.510Z,1020.96
2017-03-11T09:51:10.890Z,1020.94
2017-03-11T09:52:19.972Z,1020.92
2017-03-11T09:53:29.046Z,1020.89
2017-03-11T09:54:38.205Z,1020.87
2017-03-11T09:55:47.760Z,1020.87
2017-03-11T09:56:57.061Z,1020.84
2017-03-11T09:58:06.649Z,1020.85
2017-03-11T09:59:15.723Z,1020.82
2017-03-11T10:00:25.246Z,1020.84
2017-03-11T10:01:34.480Z,1020.85
2017-03-11T10:02:43.942Z,1020.84
2017-03-11T10:03:52.929Z,1020.85
2017-03-11T10:05:02.061Z,1020.84
2017-03-11T10:06:11.145Z,1020.87
2017-03-11T10:07:20.567Z,1020.89
2017-03-11T10:08:29.902Z,1020.85
2017-03-11T10:09:38.908Z,1020.89
2017-03-11T10:10:48.135Z,1020.87
2017-03-11T10:11:57.214Z,1020.9
2017-03-11T10:13:06.202Z,1020.92
2017-03-11T10:14:15.524Z,1020.94
2017-03-11T10:15:24.524Z,1020.96
2017-03-11T10:16:33.772Z,1020.98
2017-03-11T10:17:42.928Z,1020.96
2017-03-11T10:18:52.103Z,1020.99
2017-03-11T10:20:01.896Z,1020.96
2017-03-11T10:21:11.255Z,1020.97
2017-03-11T10:22:20.364Z,1020.99
2017-03-11T10:23:29.729Z,1020.96
2017-03-11T10:24:38.746Z,1020.93
2017-03-11T10:25:48.328Z,1020.97
2017-03-11T10:26:57.928Z,1020.96
2017-03-11T10:28:06.908Z,1020.93
2017-03-11T10:29:15.940Z,1020.95
2017-03-11T10:30:24.948Z,1020.96
2017-03-11T10:31:34.187Z,1020.93
2017-03-11T10:32:43.259Z,1020.91
2017-03-11T10:33:52.265Z,1020.92
2017-03-11T10:35:01.277Z,1020.87
2017-03-11T10:36:10.398Z,1020.88
2017-03-11T10:37:20.256Z,1020.83
2017-03-11T10:38:29.293Z,1020.81
2017-03-11T10:39:38.285Z,1020.81
2017-03-11T10:40:47.450Z,1020.8
2017-03-11T10:41:56.456Z,1020.83
2017-03-11T10:43:05.781Z,1020.8
2017-03-11T10:44:14.878Z,1020.78
2017-03-11T10:45:23.983Z,1020.73
2017-03-11T10:46:32.987Z,1020.72
2017-03-11T10:47:41.970Z,1020.79
2017-03-11T10:48:51.301Z,1020.78
2017-03-11T10:50:00.303Z,1020.75
2017-03-11T10:51:09.377Z,1020.8
2017-03-11T10:52:18.384Z,1020.78
2017-03-11T10:53:27.414Z,1020.76
2017-03-11T10:54:36.729Z,1020.71
2017-03-11T10:55:45.763Z,1020.76
2017-03-11T10:56:54.760Z,1020.75
2017-03-11T10:58:03.767Z,1020.77
2017-03-11T10:59:12.761Z,1020.72
2017-03-11T11:00:22.057Z,1020.74
2017-03-11T11:01:31.052Z,1020.75
2017-03-11T11:02:40.039Z,1020.74
2017-03-11T11:03:49.131Z,1020.78
2017-03-11T11:04:58.179Z,1020.75
2017-03-11T11:06:07.474Z,1020.71
2017-03-11T11:07:16.894Z,1020.69
2017-03-11T11:08:25.882Z,1020.71
2017-03-11T11:09:34.892Z,1020.64
2017-03-11T11:10:43.979Z,1020.62
2017-03-11T11:11:53.645Z,1020.62
2017-03-11T11:13:02.690Z,1020.65
2017-03-11T11:14:11.715Z,1020.62
2017-03-11T11:15:20.716Z,1020.64
2017-03-11T11:16:29.707Z,1020.64
2017-03-11T11:17:39.482Z,1020.63
2017-03-11T11:18:48.692Z,1020.6
2017-03-11T11:19:57.762Z,1020.57
2017-03-11T11:21:07.194Z,1020.55
2017-03-11T11:22:16.207Z,1020.58
2017-03-11T11:23:25.446Z,1020.52
2017-03-11T11:24:34.463Z,1020.5
2017-03-11T11:25:43.536Z,1020.46
2017-03-11T11:26:52.528Z,1020.43
2017-03-11T11:28:01.511Z,1020.43
2017-03-11T11:29:10.776Z,1020.45
2017-03-11T11:30:20.364Z,1020.44
2017-03-11T11:31:29.405Z,1020.44
2017-03-11T11:32:38.408Z,1020.42
2017-03-11T11:33:47.627Z,1020.4
2017-03-11T11:34:56.894Z,1020.43
2017-03-11T11:36:05.936Z,1020.39
2017-03-11T11:37:14.960Z,1020.41
2017-03-11T11:38:23.963Z,1020.37
2017-03-11T11:39:33.046Z,1020.39
2017-03-11T11:40:42.480Z,1020.4
2017-03-11T11:41:51.472Z,1020.43
2017-03-11T11:43:00.634Z,1020.44
2017-03-11T11:44:09.680Z,1020.43
2017-03-11T11:45:18.684Z,1020.43
2017-03-11T11:46:27.923Z,1020.45
2017-03-11T11:47:36.993Z,1020.46
2017-03-11T11:48:46.252Z,1020.48
2017-03-11T11:49:55.252Z,1020.46
2017-03-11T11:51:04.261Z,1020.42
2017-03-11T11:52:13.807Z,1020.41
2017-03-11T11:53:23.521Z,1020.43
2017-03-11T11:54:32.514Z,1020.38
2017-03-11T11:55:41.523Z,1020.38
2017-03-11T11:56:50.600Z,1020.36
2017-03-11T11:58:00.009Z,1020.32
2017-03-11T11:59:09.007Z,1020.28
2017-03-11T12:00:18.140Z,1020.24
2017-03-11T12:01:27.142Z,1020.22
2017-03-11T12:02:36.128Z,1020.18
2017-03-11T12:03:45.133Z,1020.13
2017-03-11T12:04:54.134Z,1020.21
2017-03-11T12:06:03.153Z,1020.2
2017-03-11T12:07:12.277Z,1020.16
2017-03-11T12:08:21.346Z,1020.14
2017-03-11T12:09:30.345Z,1020.14
2017-03-11T12:10:39.363Z,1020.14
2017-03-11T12:11:48.352Z,1020.07
2017-03-11T12:12:57.339Z,1020.12
2017-03-11T12:14:06.575Z,1020.09
2017-03-11T12:15:15.693Z,1020.08
2017-03-11T12:16:24.683Z,1020.08
2017-03-11T12:17:33.792Z,1020.08
2017-03-11T12:18:43.491Z,1020.08
2017-03-11T12:19:52.619Z,1020.1
2017-03-11T12:21:01.658Z,1020.08
2017-03-11T12:22:11.125Z,1020.07
2017-03-11T12:23:20.269Z,1020.07
2017-03-11T12:24:29.562Z,1020.04
2017-03-11T12:25:38.579Z,1019.99
2017-03-11T12:26:48.506Z,1020
2017-03-11T12:27:57.580Z,1020.01
2017-03-11T12:29:06.578Z,1020.01
2017-03-11T12:30:15.857Z,1019.99
2017-03-11T12:31:24.855Z,1019.94
2017-03-11T12:32:33.838Z,1019.92
2017-03-11T12:33:42.996Z,1019.89
2017-03-11T12:34:52.424Z,1019.88
2017-03-11T12:36:01.824Z,1019.85
2017-03-11T12:37:10.926Z,1019.89
2017-03-11T12:38:20.067Z,1019.9
2017-03-11T12:39:29.261Z,1019.9
2017-03-11T12:40:38.248Z,1019.92
2017-03-11T12:41:47.969Z,1019.96
2017-03-11T12:42:56.949Z,1019.95
2017-03-11T12:44:05.939Z,1019.93
2017-03-11T12:45:15.093Z,1019.92
2017-03-11T12:46:25.390Z,1019.9
2017-03-11T12:47:40.268Z,1019.93
2017-03-11T12:48:49.703Z,1019.92
2017-03-11T12:49:58.685Z,1019.91
2017-03-11T12:51:08.086Z,1019.87
2017-03-11T12:52:17.068Z,1019.86
2017-03-11T12:53:26.311Z,1019.85
2017-03-11T12:54:35.398Z,1019.85
2017-03-11T12:55:44.802Z,1019.9
2017-03-11T12:56:54.200Z,1019.86
2017-03-11T12:58:03.189Z,1019.85
2017-03-11T12:59:12.907Z,1019.87
2017-03-11T13:00:23.892Z,1019.89
2017-03-11T13:01:32.881Z,1019.88
2017-03-11T13:02:41.878Z,1019.86
2017-03-11T13:03:50.874Z,1019.88
2017-03-11T13:05:00.119Z,1019.88
2017-03-11T13:06:09.115Z,1019.81
2017-03-11T13:07:18.115Z,1019.86
2017-03-11T13:08:27.796Z,1019.81
2017-03-11T13:09:36.805Z,1019.85
2017-03-11T13:10:46.137Z,1019.8
2017-03-11T13:11:55.224Z,1019.84
2017-03-11T13:13:04.223Z,1019.82
2017-03-11T13:14:13.309Z,1019.77
2017-03-11T13:15:22.399Z,1019.74
2017-03-11T13:16:31.651Z,1019.76
2017-03-11T13:17:40.640Z,1019.71
2017-03-11T13:18:49.752Z,1019.69
2017-03-11T13:19:58.765Z,1019.7
2017-03-11T13:21:07.952Z,1019.66
2017-03-11T13:22:17.610Z,1019.64
2017-03-11T13:23:26.599Z,1019.64
2017-03-11T13:24:35.612Z,1019.66
2017-03-11T13:25:44.616Z,1019.63
2017-03-11T13:26:53.625Z,1019.67
2017-03-11T13:28:02.878Z,1019.66
2017-03-11T13:29:11.861Z,1019.65
2017-03-11T13:30:20.892Z,1019.63
2017-03-11T13:31:29.878Z,1019.68
2017-03-11T13:32:38.865Z,1019.68
2017-03-11T13:33:48.346Z,1019.66
2017-03-11T13:34:57.441Z,1019.7
2017-03-11T13:36:06.446Z,1019.69
2017-03-11T13:37:15.457Z,1019.72
2017-03-11T13:38:24.474Z,1019.66
2017-03-11T13:39:33.866Z,1019.67
2017-03-11T13:40:42.862Z,1019.63
2017-03-11T13:41:51.967Z,1019.67
2017-03-11T13:43:00.993Z,1019.62
2017-03-11T13:44:09.970Z,1019.63
2017-03-11T13:45:19.265Z,1019.65
2017-03-11T13:46:28.257Z,1019.66
2017-03-11T13:47:37.249Z,1019.68
2017-03-11T13:48:46.266Z,1019.71
2017-03-11T13:49:55.336Z,1019.67
2017-03-11T13:51:05.131Z,1019.67
2017-03-11T13:52:14.128Z,1019.65
2017-03-11T13:53:23.198Z,1019.62
2017-03-11T13:54:32.367Z,1019.63
2017-03-11T13:55:41.442Z,1019.57
2017-03-11T13:56:50.695Z,1019.57
2017-03-11T13:57:59.795Z,1019.58
2017-03-11T13:59:08.792Z,1019.58
2017-03-11T14:00:17.795Z,1019.56
2017-03-11T14:01:27.241Z,1019.54
2017-03-11T14:02:36.475Z,1019.55
2017-03-11T14:03:45.481Z,1019.53
2017-03-11T14:04:54.468Z,1019.53
2017-03-11T14:06:03.467Z,1019.49